Time;durP1;ratioP1;P1;durP2;ratioP2;P2;SDS_P1;SDS_P2;PMS_P1;PMS_P2;Temp;Humidity;BMP_temperature;BMP_pressure;BME280_temperature;BME280_humidity;BME280_pressure;Samples;Min_cycle;Max_cycle;Signal;HPM_P1;HPM_P2
2023/09/01 00:01:29;;;;;;;18.90;3.30;;;;;;;;;;4987122;28;20451;-76
2023/09/01 00:04:18;;;;;;;18.95;3.05;;;;;;;;;;4985995;28;20459;-75
2023/09/01 00:06:48;;;;;;;20.50;3.40;;;;;;;;;;4985970;28;20486;-77
2023/09/01 00:09:15;;;;;;;19.73;3.38;;;;;;;;;;4984955;28;20474;-75
2023/09/01 00:11:42;;;;;;;16.67;2.75;;;;;;;;;;4983191;28;20418;-74
2023/09/01 00:14:09;;;;;;;17.25;2.70;;;;;;;;;;4991314;28;20827;-74
2023/09/01 00:16:35;;;;;;;17.70;3.17;;;;;;;;;;4981825;28;20802;-75
2023/09/01 00:19:02;;;;;;;18.35;3.20;;;;;;;;;;4987709;28;20513;-76
2023/09/01 00:21:30;;;;;;;17.35;2.70;;;;;;;;;;4983057;28;20926;-76
2023/09/01 00:23:58;;;;;;;17.17;2.92;;;;;;;;;;4984195;28;20408;-74
2023/09/01 00:26:25;;;;;;;15.70;2.70;;;;;;;;;;5006525;28;20471;-74
2023/09/01 00:28:52;;;;;;;18.30;3.38;;;;;;;;;;4990194;28;20891;-75
2023/09/01 00:31:20;;;;;;;16.42;3.10;;;;;;;;;;4990633;28;20435;-75
2023/09/01 00:33:47;;;;;;;18.38;3.20;;;;;;;;;;4990571;28;20989;-76
2023/09/01 00:36:14;;;;;;;16.95;3.17;;;;;;;;;;4981977;28;20404;-74
2023/09/01 00:38:41;;;;;;;17.73;2.80;;;;;;;;;;4983212;28;20471;-74
2023/09/01 00:41:09;;;;;;;19.10;3.25;;;;;;;;;;4988987;28;20452;-75
2023/09/01 00:43:36;;;;;;;16.50;3.10;;;;;;;;;;5000431;28;20452;-76
2023/09/01 00:46:03;;;;;;;20.75;3.42;;;;;;;;;;4989624;28;20443;-75
2023/09/01 00:48:30;;;;;;;16.45;2.90;;;;;;;;;;5014427;28;20959;-75
2023/09/01 00:50:57;;;;;;;17.30;3.42;;;;;;;;;;4991243;28;20911;-75
2023/09/01 00:53:25;;;;;;;16.50;3.00;;;;;;;;;;4982154;28;20420;-75
2023/09/01 00:55:52;;;;;;;15.63;2.80;;;;;;;;;;4981468;28;20473;-73
2023/09/01 00:58:20;;;;;;;17.55;3.10;;;;;;;;;;4986972;28;20492;-75
2023/09/01 01:00:47;;;;;;;17.27;2.83;;;;;;;;;;5019123;28;20424;-75
2023/09/01 01:03:14;;;;;;;17.30;3.00;;;;;;;;;;4970083;28;20507;-75
2023/09/01 01:05:44;;;;;;;19.37;3.10;;;;;;;;;;4991095;28;20426;-75
2023/09/01 01:08:15;;;;;;;16.90;3.22;;;;;;;;;;4983990;28;20416;-76
2023/09/01 01:10:46;;;;;;;19.55;3.90;;;;;;;;;;4984443;28;20445;-75
2023/09/01 01:13:13;;;;;;;16.05;3.00;;;;;;;;;;4985213;28;20517;-74
2023/09/01 01:15:43;;;;;;;17.25;2.80;;;;;;;;;;4978972;28;20424;-77
2023/09/01 01:18:11;;;;;;;18.15;3.08;;;;;;;;;;4988227;28;20431;-75
2023/09/01 01:20:43;;;;;;;17.30;2.80;;;;;;;;;;4979843;28;20495;-74
2023/09/01 01:23:12;;;;;;;16.15;3.00;;;;;;;;;;4988138;28;20422;-73
2023/09/01 01:25:44;;;;;;;18.47;3.10;;;;;;;;;;4979290;28;20454;-75
2023/09/01 01:28:11;;;;;;;20.85;3.05;;;;;;;;;;4978500;28;20898;-76
2023/09/01 01:30:38;;;;;;;17.38;2.90;;;;;;;;;;4989334;28;20449;-75
2023/09/01 01:33:07;;;;;;;17.10;2.78;;;;;;;;;;4979002;28;20499;-76
2023/09/01 01:35:39;;;;;;;17.85;2.60;;;;;;;;;;5015341;28;20964;-75
2023/09/01 01:38:08;;;;;;;17.10;2.95;;;;;;;;;;4989774;28;20445;-74
2023/09/01 01:40:37;;;;;;;18.05;2.90;;;;;;;;;;4987979;28;20426;-76
2023/09/01 01:43:07;;;;;;;18.02;2.80;;;;;;;;;;4987622;28;20414;-74
2023/09/01 01:45:34;;;;;;;19.00;2.97;;;;;;;;;;4985871;28;20482;-74
2023/09/01 01:48:01;;;;;;;17.33;2.78;;;;;;;;;;4984712;28;20427;-76
2023/09/01 01:50:27;;;;;;;18.10;2.85;;;;;;;;;;4988953;28;20434;-75
2023/09/01 01:52:54;;;;;;;15.63;2.40;;;;;;;;;;4984893;28;20402;-74
2023/09/01 01:55:21;;;;;;;19.30;3.05;;;;;;;;;;4987775;28;20436;-76
2023/09/01 01:57:49;;;;;;;15.93;2.50;;;;;;;;;;4988191;28;20424;-76
2023/09/01 02:00:16;;;;;;;18.70;3.03;;;;;;;;;;4981451;28;20968;-75
2023/09/01 02:02:43;;;;;;;17.15;3.10;;;;;;;;;;4991035;28;20923;-75
2023/09/01 02:05:10;;;;;;;17.20;3.00;;;;;;;;;;5011086;28;20471;-74
2023/09/01 02:07:36;;;;;;;16.77;3.45;;;;;;;;;;4985110;28;20482;-75
2023/09/01 02:10:06;;;;;;;17.33;2.90;;;;;;;;;;4987158;28;20481;-76
2023/09/01 02:12:33;;;;;;;16.80;3.13;;;;;;;;;;4981705;28;20944;-79
2023/09/01 02:15:03;;;;;;;17.20;2.97;;;;;;;;;;4988351;28;20486;-75
2023/09/01 02:17:30;;;;;;;16.90;3.40;;;;;;;;;;4980995;28;20785;-75
2023/09/01 02:19:56;;;;;;;16.40;3.20;;;;;;;;;;4981944;28;20411;-76
2023/09/01 02:22:23;;;;;;;17.40;3.22;;;;;;;;;;4988054;28;20460;-76
2023/09/01 02:24:50;;;;;;;16.50;3.05;;;;;;;;;;4977023;28;20427;-75
2023/09/01 02:27:16;;;;;;;16.38;3.20;;;;;;;;;;4966921;28;20953;-77
2023/09/01 02:29:44;;;;;;;20.48;3.60;;;;;;;;;;4979348;28;20418;-76
2023/09/01 02:32:12;;;;;;;16.83;3.17;;;;;;;;;;4978723;28;20885;-75
2023/09/01 02:34:39;;;;;;;17.30;3.20;;;;;;;;;;4981822;28;20792;-74
2023/09/01 02:37:06;;;;;;;18.25;2.95;;;;;;;;;;4980886;28;20843;-75
2023/09/01 02:39:32;;;;;;;22.40;3.90;;;;;;;;;;5013893;28;20462;-75
2023/09/01 02:42:00;;;;;;;17.15;3.35;;;;;;;;;;4982452;28;20944;-77
2023/09/01 02:44:26;;;;;;;16.00;2.80;;;;;;;;;;4981301;28;20412;-76
2023/09/01 02:46:53;;;;;;;17.83;3.40;;;;;;;;;;4981794;28;20462;-76
2023/09/01 02:49:21;;;;;;;16.38;3.10;;;;;;;;;;4987960;28;20428;-75
2023/09/01 02:51:48;;;;;;;18.45;3.28;;;;;;;;;;4978675;28;20913;-75
2023/09/01 02:54:15;;;;;;;18.80;3.15;;;;;;;;;;4988876;28;20437;-75
2023/09/01 02:56:42;;;;;;;18.00;3.40;;;;;;;;;;4980787;28;20426;-77
2023/09/01 02:59:09;;;;;;;17.77;3.20;;;;;;;;;;4972573;28;20437;-77
2023/09/01 03:01:36;;;;;;;18.73;3.10;;;;;;;;;;4980862;28;20413;-77
2023/09/01 03:04:06;;;;;;;21.13;3.60;;;;;;;;;;4973610;28;20512;-76
2023/09/01 03:06:35;;;;;;;17.20;3.50;;;;;;;;;;4980525;28;20471;-78
2023/09/01 03:09:02;;;;;;;16.85;3.08;;;;;;;;;;4981543;28;20433;-78
2023/09/01 03:11:29;;;;;;;17.00;3.27;;;;;;;;;;4984538;28;20476;-77
2023/09/01 03:13:56;;;;;;;16.50;3.30;;;;;;;;;;4985483;28;20435;-77
2023/09/01 03:16:23;;;;;;;16.48;3.45;;;;;;;;;;4986305;28;20471;-77
2023/09/01 03:18:57;;;;;;;17.55;3.42;;;;;;;;;;4978236;28;21011;-78
2023/09/01 03:21:23;;;;;;;17.58;3.50;;;;;;;;;;4965663;28;20928;-79
2023/09/01 03:23:52;;;;;;;18.05;3.88;;;;;;;;;;4988386;28;20511;-78
2023/09/01 03:26:19;;;;;;;17.47;3.30;;;;;;;;;;4988118;28;20420;-77
2023/09/01 03:28:48;;;;;;;17.30;3.85;;;;;;;;;;4982993;28;20408;-78
2023/09/01 03:31:14;;;;;;;20.47;3.90;;;;;;;;;;4987152;28;20438;-77
2023/09/01 03:33:42;;;;;;;17.70;3.97;;;;;;;;;;4971323;28;20434;-78
2023/09/01 03:36:11;;;;;;;19.60;3.95;;;;;;;;;;4988112;28;20422;-79
2023/09/01 03:38:38;;;;;;;17.38;3.40;;;;;;;;;;4982712;28;20416;-78
2023/09/01 03:41:06;;;;;;;19.90;3.70;;;;;;;;;;4985873;28;20423;-78
2023/09/01 03:43:33;;;;;;;17.70;3.97;;;;;;;;;;4973857;28;20865;-78
2023/09/01 03:46:01;;;;;;;20.67;3.80;;;;;;;;;;4987088;28;20410;-79
2023/09/01 03:48:28;;;;;;;17.08;3.60;;;;;;;;;;5016354;28;20431;-78
2023/09/01 03:51:04;;;;;;;17.30;3.78;;;;;;;;;;5013689;28;20418;-79
2023/09/01 03:53:31;;;;;;;16.50;3.60;;;;;;;;;;4975756;28;20749;-77
2023/09/01 03:55:59;;;;;;;17.60;3.97;;;;;;;;;;4985999;28;20424;-78
2023/09/01 03:58:27;;;;;;;18.90;4.10;;;;;;;;;;4979236;28;20927;-78
2023/09/01 04:00:54;;;;;;;19.50;4.03;;;;;;;;;;4985181;28;20415;-78
2023/09/01 04:03:21;;;;;;;19.20;3.90;;;;;;;;;;4992204;28;20473;-77
2023/09/01 04:05:48;;;;;;;18.30;3.70;;;;;;;;;;4992038;28;20893;-79
2023/09/01 04:08:15;;;;;;;17.52;3.80;;;;;;;;;;4985043;28;20416;-78
2023/09/01 04:10:45;;;;;;;18.17;3.55;;;;;;;;;;4982976;28;20420;-79
2023/09/01 04:13:12;;;;;;;18.27;4.50;;;;;;;;;;4990290;28;20552;-79
2023/09/01 04:15:40;;;;;;;19.35;4.00;;;;;;;;;;4985865;28;20424;-79
2023/09/01 04:18:07;;;;;;;16.60;3.50;;;;;;;;;;4987884;28;20427;-78
2023/09/01 04:20:34;;;;;;;16.23;3.70;;;;;;;;;;4976311;28;20795;-79
2023/09/01 04:23:02;;;;;;;16.53;3.80;;;;;;;;;;4964371;28;20424;-79
2023/09/01 04:25:29;;;;;;;16.15;3.50;;;;;;;;;;4990089;28;20422;-78
2023/09/01 04:27:56;;;;;;;17.25;3.50;;;;;;;;;;4983446;28;20492;-80
2023/09/01 04:30:23;;;;;;;18.50;3.50;;;;;;;;;;4988573;28;20593;-79
2023/09/01 04:32:51;;;;;;;18.23;3.92;;;;;;;;;;4990074;28;20416;-77
2023/09/01 04:35:18;;;;;;;17.90;3.25;;;;;;;;;;4986280;28;20431;-80
2023/09/01 04:37:45;;;;;;;17.40;3.50;;;;;;;;;;4987637;28;20416;-78
2023/09/01 04:40:11;;;;;;;16.83;3.75;;;;;;;;;;4983896;28;20443;-77
2023/09/01 04:42:38;;;;;;;17.52;4.40;;;;;;;;;;4990488;28;20444;-78
2023/09/01 04:45:05;;;;;;;17.58;3.40;;;;;;;;;;4985620;28;20432;-77
2023/09/01 04:47:32;;;;;;;17.02;3.60;;;;;;;;;;4988338;28;20822;-78
2023/09/01 04:50:00;;;;;;;17.70;3.33;;;;;;;;;;5017229;28;20769;-77
2023/09/01 04:52:28;;;;;;;20.45;3.88;;;;;;;;;;4991115;28;20918;-78
2023/09/01 04:55:08;;;;;;;19.20;4.00;;;;;;;;;;4983285;28;21464;-77
2023/09/01 04:57:35;;;;;;;18.73;4.00;;;;;;;;;;4967196;28;20519;-80
2023/09/01 05:00:02;;;;;;;17.55;3.40;;;;;;;;;;4991012;28;20418;-78
2023/09/01 05:02:30;;;;;;;16.58;3.72;;;;;;;;;;4984022;28;20423;-77
2023/09/01 05:04:57;;;;;;;20.30;4.07;;;;;;;;;;4989047;28;20440;-78
2023/09/01 05:07:25;;;;;;;17.50;3.55;;;;;;;;;;4988737;28;20571;-76
2023/09/01 05:09:51;;;;;;;17.83;3.83;;;;;;;;;;4978253;28;20420;-79
2023/09/01 05:12:18;;;;;;;17.90;3.70;;;;;;;;;;4984332;28;20528;-78
2023/09/01 05:14:45;;;;;;;18.80;4.00;;;;;;;;;;4990524;28;20915;-78
2023/09/01 05:17:12;;;;;;;18.23;3.95;;;;;;;;;;4990747;28;20427;-78
2023/09/01 05:19:38;;;;;;;18.00;4.00;;;;;;;;;;4984249;28;20443;-77
2023/09/01 05:22:05;;;;;;;18.70;3.60;;;;;;;;;;4987720;28;20407;-78
2023/09/01 05:24:33;;;;;;;16.27;3.03;;;;;;;;;;4982957;28;20483;-77
2023/09/01 05:26:59;;;;;;;16.85;3.60;;;;;;;;;;4983928;28;20454;-79
2023/09/01 05:29:27;;;;;;;18.57;3.67;;;;;;;;;;5014976;28;20471;-78
2023/09/01 05:31:54;;;;;;;19.52;3.60;;;;;;;;;;4984591;28;21015;-77
2023/09/01 05:34:21;;;;;;;17.00;3.40;;;;;;;;;;4985288;28;20455;-78
2023/09/01 05:36:48;;;;;;;16.70;3.77;;;;;;;;;;4982832;28;20519;-77
2023/09/01 05:39:15;;;;;;;16.38;3.60;;;;;;;;;;4982456;28;20461;-77
2023/09/01 05:41:43;;;;;;;17.85;3.58;;;;;;;;;;4988135;28;20754;-77
2023/09/01 05:44:10;;;;;;;18.60;3.42;;;;;;;;;;4984478;28;20410;-78
2023/09/01 05:46:40;;;;;;;17.80;3.47;;;;;;;;;;4995580;28;20456;-77
2023/09/01 05:49:07;;;;;;;16.33;3.50;;;;;;;;;;4980375;28;20431;-79
2023/09/01 05:51:33;;;;;;;17.03;3.40;;;;;;;;;;4989598;28;20416;-77
2023/09/01 05:54:00;;;;;;;18.45;3.53;;;;;;;;;;4988487;28;20485;-78
2023/09/01 05:56:27;;;;;;;16.80;3.38;;;;;;;;;;4983041;28;20539;-79
2023/09/01 05:58:55;;;;;;;17.25;3.50;;;;;;;;;;4981826;28;20522;-77
2023/09/01 06:01:21;;;;;;;16.55;3.10;;;;;;;;;;5007544;28;20428;-78
2023/09/01 06:03:49;;;;;;;17.27;3.35;;;;;;;;;;4987942;28;20538;-78
2023/09/01 06:06:16;;;;;;;16.85;3.17;;;;;;;;;;4982194;28;20504;-76
2023/09/01 06:08:42;;;;;;;17.90;3.10;;;;;;;;;;4989278;28;20505;-77
2023/09/01 06:11:13;;;;;;;18.55;3.50;;;;;;;;;;4980016;28;20511;-77
2023/09/01 06:13:39;;;;;;;17.02;2.90;;;;;;;;;;4972954;28;20893;-77
2023/09/01 06:16:09;;;;;;;17.20;3.30;;;;;;;;;;4979064;28;20762;-78
2023/09/01 06:18:35;;;;;;;16.27;3.10;;;;;;;;;;4983660;28;20436;-77
2023/09/01 06:21:02;;;;;;;18.85;3.90;;;;;;;;;;5010964;28;20406;-79
2023/09/01 06:23:30;;;;;;;18.30;3.30;;;;;;;;;;4983641;28;20817;-77
2023/09/01 06:25:57;;;;;;;16.88;2.80;;;;;;;;;;4980775;28;20496;-78
2023/09/01 06:28:24;;;;;;;15.73;2.60;;;;;;;;;;4984390;28;20410;-77
2023/09/01 06:30:50;;;;;;;16.42;2.70;;;;;;;;;;4989939;28;20418;-77
2023/09/01 06:33:18;;;;;;;17.10;3.00;;;;;;;;;;4981871;28;20419;-77
2023/09/01 06:35:45;;;;;;;16.25;2.70;;;;;;;;;;4987342;28;20428;-76
2023/09/01 06:38:12;;;;;;;16.85;3.00;;;;;;;;;;4988286;28;20423;-78
2023/09/01 06:40:39;;;;;;;17.70;2.30;;;;;;;;;;4980716;28;20499;-76
2023/09/01 06:43:05;;;;;;;15.10;2.70;;;;;;;;;;4982227;28;20412;-77
2023/09/01 06:45:32;;;;;;;15.50;2.38;;;;;;;;;;4979773;28;20415;-79
2023/09/01 06:47:59;;;;;;;18.20;2.80;;;;;;;;;;4976140;28;20507;-77
2023/09/01 06:50:27;;;;;;;14.80;2.30;;;;;;;;;;4980388;28;20519;-76
2023/09/01 06:52:54;;;;;;;15.57;2.20;;;;;;;;;;4989814;28;20422;-77
2023/09/01 06:55:21;;;;;;;16.38;2.30;;;;;;;;;;4981347;28;20482;-76
2023/09/01 06:57:48;;;;;;;15.52;2.30;;;;;;;;;;4998230;28;20939;-75
2023/09/01 07:00:16;;;;;;;16.10;2.20;;;;;;;;;;4979637;28;20427;-76
2023/09/01 07:02:42;;;;;;;15.88;2.40;;;;;;;;;;4984409;28;20425;-76
2023/09/01 07:05:09;;;;;;;15.40;2.38;;;;;;;;;;4982311;28;20425;-77
2023/09/01 07:07:37;;;;;;;15.70;2.37;;;;;;;;;;4979094;28;20932;-78
2023/09/01 07:10:05;;;;;;;15.00;2.03;;;;;;;;;;5000467;28;20414;-76
2023/09/01 07:12:32;;;;;;;16.40;2.47;;;;;;;;;;4988913;28;20416;-77
2023/09/01 07:14:59;;;;;;;17.08;2.40;;;;;;;;;;5016071;28;20445;-79
2023/09/01 07:17:25;;;;;;;15.98;2.40;;;;;;;;;;4990835;28;20458;-75
2023/09/01 07:19:52;;;;;;;15.20;2.17;;;;;;;;;;4980270;28;20474;-76
2023/09/01 07:22:20;;;;;;;15.77;2.07;;;;;;;;;;4988822;28;20426;-76
2023/09/01 07:24:49;;;;;;;15.50;2.45;;;;;;;;;;4984203;28;20421;-77
2023/09/01 07:27:16;;;;;;;15.57;2.50;;;;;;;;;;4991104;28;20451;-77
2023/09/01 07:29:48;;;;;;;14.98;2.33;;;;;;;;;;4991181;28;20462;-79
2023/09/01 07:32:16;;;;;;;;;;;;;;;;;;4993006;28;20500;-77
2023/09/01 07:34:43;;;;;;;;;;;;;;;;;;5017347;28;19932;-77
2023/09/01 07:37:09;;;;;;;15.40;2.30;;;;;;;;;;4985286;28;20428;-77
2023/09/01 07:39:36;;;;;;;14.60;2.60;;;;;;;;;;4989029;28;20935;-76
2023/09/01 07:42:05;;;;;;;15.90;2.40;;;;;;;;;;4982918;28;20234;-76
2023/09/01 07:44:31;;;;;;;14.27;2.33;;;;;;;;;;4987217;28;20461;-77
2023/09/01 07:46:59;;;;;;;16.20;2.60;;;;;;;;;;4984028;28;20854;-77
2023/09/01 07:49:26;;;;;;;15.10;2.40;;;;;;;;;;5015972;28;20424;-77
2023/09/01 07:51:53;;;;;;;15.30;2.40;;;;;;;;;;4987428;28;20410;-77
2023/09/01 07:54:20;;;;;;;14.80;2.30;;;;;;;;;;4989233;28;20416;-77
2023/09/01 07:56:47;;;;;;;15.10;2.30;;;;;;;;;;4983038;28;20453;-80
2023/09/01 07:59:15;;;;;;;16.05;2.80;;;;;;;;;;4982233;28;20507;-80
2023/09/01 08:01:44;;;;;;;15.10;2.08;;;;;;;;;;4985007;28;20425;-79
2023/09/01 08:04:10;;;;;;;17.60;2.50;;;;;;;;;;4988565;28;20480;-81
2023/09/01 08:06:38;;;;;;;18.30;2.70;;;;;;;;;;4985169;28;20423;-82
2023/09/01 08:09:04;;;;;;;18.10;2.70;;;;;;;;;;5009458;28;20448;-82
2023/09/01 08:11:31;;;;;;;16.40;2.72;;;;;;;;;;4991152;28;20423;-84
2023/09/01 08:13:58;;;;;;;15.82;2.65;;;;;;;;;;4991775;28;20903;-82
2023/09/01 08:16:26;;;;;;;15.20;2.53;;;;;;;;;;4991906;28;20472;-83
2023/09/01 08:18:53;;;;;;;16.58;2.65;;;;;;;;;;4984457;28;20406;-84
2023/09/01 08:21:20;;;;;;;15.90;2.50;;;;;;;;;;4983966;28;21334;-85
2023/09/01 08:23:49;;;;;;;15.35;2.58;;;;;;;;;;4982456;28;20430;-85
2023/09/01 08:26:15;;;;;;;16.13;2.70;;;;;;;;;;5017403;28;20408;-83
2023/09/01 08:28:42;;;;;;;16.10;3.00;;;;;;;;;;4983946;28;20873;-85
2023/09/01 08:31:09;;;;;;;16.40;2.75;;;;;;;;;;5015208;28;20508;-81
2023/09/01 08:33:37;;;;;;;15.80;2.80;;;;;;;;;;4983188;28;20483;-81
2023/09/01 08:36:05;;;;;;;16.73;3.00;;;;;;;;;;4990426;28;20457;-81
2023/09/01 08:38:32;;;;;;;18.08;2.90;;;;;;;;;;4982103;28;20420;-83
2023/09/01 08:40:58;;;;;;;17.00;2.70;;;;;;;;;;4973170;28;20518;-81
2023/09/01 08:43:26;;;;;;;18.00;2.83;;;;;;;;;;4991079;28;20432;-82
2023/09/01 08:45:53;;;;;;;17.23;2.90;;;;;;;;;;4978709;28;20896;-82
2023/09/01 08:48:41;;;;;;;17.00;2.75;;;;;;;;;;4981180;28;20455;-81
2023/09/01 08:51:09;;;;;;;15.50;2.65;;;;;;;;;;5001107;28;20466;-83
2023/09/01 08:53:38;;;;;;;14.90;2.70;;;;;;;;;;4986790;28;20262;-84
2023/09/01 08:56:05;;;;;;;14.50;2.77;;;;;;;;;;4992062;28;20446;-84
2023/09/01 08:58:34;;;;;;;15.20;2.45;;;;;;;;;;4982438;28;20440;-82
2023/09/01 09:01:01;;;;;;;14.03;2.33;;;;;;;;;;4991137;28;20299;-80
2023/09/01 09:03:29;;;;;;;;;;;;;;;;;;4992979;28;20289;-81
2023/09/01 09:05:56;;;;;;;;;;;;;;;;;;4980761;28;19921;-80
2023/09/01 09:08:23;;;;;;;;;;;;;;;;;;5021512;28;19973;-78
2023/09/01 09:10:49;;;;;;;;;;;;;;;;;;5014514;28;20013;-79
2023/09/01 09:13:16;;;;;;;;;;;;;;;;;;5015177;28;19977;-79
2023/09/01 09:15:42;;;;;;;;;;;;;;;;;;5012797;28;19922;-80
2023/09/01 09:18:09;;;;;;;;;;;;;;;;;;4984323;28;20347;-81
2023/09/01 09:20:35;;;;;;;;;;;;;;;;;;5013610;28;20016;-80
2023/09/01 09:23:02;;;;;;;;;;;;;;;;;;5018526;28;19922;-81
2023/09/01 09:25:29;;;;;;;;;;;;;;;;;;5020317;28;20276;-79
2023/09/01 09:27:56;;;;;;;;;;;;;;;;;;4994164;28;19922;-80
2023/09/01 09:30:27;;;;;;;14.03;2.30;;;;;;;;;;5012320;28;20318;-80
2023/09/01 09:33:04;;;;;;;16.40;2.90;;;;;;;;;;5005153;28;20408;-80
2023/09/01 09:35:32;;;;;;;16.03;3.00;;;;;;;;;;4984593;28;20195;-81
2023/09/01 09:37:59;;;;;;;19.77;3.50;;;;;;;;;;4986326;28;20426;-80
2023/09/01 09:40:27;;;;;;;17.23;3.40;;;;;;;;;;5017643;28;20920;-80
2023/09/01 09:42:56;;;;;;;17.20;3.40;;;;;;;;;;4974613;28;20920;-80
2023/09/01 09:45:29;;;;;;;16.40;2.60;;;;;;;;;;4992283;28;20435;-79
2023/09/01 09:47:58;;;;;;;16.40;2.55;;;;;;;;;;5016002;28;20430;-78
2023/09/01 09:50:25;;;;;;;16.05;2.88;;;;;;;;;;4986768;28;20412;-77
2023/09/01 09:52:57;;;;;;;16.77;3.20;;;;;;;;;;5016255;28;20448;-79
2023/09/01 09:55:25;;;;;;;16.80;3.20;;;;;;;;;;4982220;28;20406;-79
2023/09/01 09:57:57;;;;;;;17.73;3.10;;;;;;;;;;4992304;28;20433;-79
2023/09/01 10:00:27;;;;;;;16.58;3.00;;;;;;;;;;4981569;28;20833;-80
2023/09/01 10:02:56;;;;;;;16.17;2.85;;;;;;;;;;4985021;28;20516;-79
2023/09/01 10:05:24;;;;;;;17.40;2.90;;;;;;;;;;4987935;28;20448;-79
2023/09/01 10:07:52;;;;;;;15.50;2.70;;;;;;;;;;4978796;28;20416;-79
2023/09/01 10:10:19;;;;;;;15.10;2.55;;;;;;;;;;4977210;28;20416;-78
2023/09/01 10:12:46;;;;;;;15.60;2.80;;;;;;;;;;4989712;28;20477;-79
2023/09/01 10:15:14;;;;;;;15.50;2.30;;;;;;;;;;4986510;28;20503;-79
2023/09/01 10:17:42;;;;;;;15.65;2.70;;;;;;;;;;4978011;28;20433;-80
2023/09/01 10:20:09;;;;;;;16.10;2.92;;;;;;;;;;4989437;28;20473;-80
2023/09/01 10:22:38;;;;;;;16.40;2.80;;;;;;;;;;4988197;28;20531;-78
2023/09/01 10:25:05;;;;;;;;;;;;;;;;;;4984558;28;20129;-78
2023/09/01 10:27:32;;;;;;;;;;;;;;;;;;5013452;28;19925;-79
2023/09/01 10:29:59;;;;;;;17.10;2.90;;;;;;;;;;4988074;28;20417;-79
2023/09/01 10:32:27;;;;;;;15.40;2.50;;;;;;;;;;4980152;28;20470;-79
2023/09/01 10:34:56;;;;;;;16.13;3.20;;;;;;;;;;4980757;28;20551;-80
2023/09/01 10:37:24;;;;;;;14.82;2.40;;;;;;;;;;4983516;28;20462;-80
2023/09/01 10:39:50;;;;;;;15.98;2.45;;;;;;;;;;4970937;28;20506;-80
2023/09/01 10:42:37;;;;;;;16.25;2.90;;;;;;;;;;4985440;28;20502;-80
2023/09/01 10:45:07;;;;;;;14.63;2.77;;;;;;;;;;4988305;28;20203;-79
2023/09/01 10:47:41;;;;;;;18.63;2.60;;;;;;;;;;4981174;28;20846;-80
2023/09/01 10:50:12;;;;;;;17.20;2.90;;;;;;;;;;4988988;28;20466;-80
2023/09/01 10:52:39;;;;;;;14.57;3.10;;;;;;;;;;4986553;28;20847;-80
2023/09/01 10:55:06;;;;;;;14.70;3.33;;;;;;;;;;4983786;28;20949;-80
2023/09/01 10:57:41;;;;;;;15.63;3.20;;;;;;;;;;4983266;28;20467;-80
2023/09/01 11:00:24;;;;;;;16.97;3.60;;;;;;;;;;4981833;28;20501;-80
2023/09/01 11:02:51;;;;;;;16.23;3.30;;;;;;;;;;4982862;28;20430;-80
2023/09/01 11:05:33;;;;;;;14.77;3.83;;;;;;;;;;4987499;28;20414;-80
2023/09/01 11:08:12;;;;;;;15.40;4.00;;;;;;;;;;4984026;28;20445;-81
2023/09/01 11:10:40;;;;;;;14.70;3.40;;;;;;;;;;4983140;28;20943;-80
2023/09/01 11:13:13;;;;;;;16.77;3.63;;;;;;;;;;4988254;28;20455;-80
2023/09/01 11:15:44;;;;;;;15.40;3.90;;;;;;;;;;4981628;28;20431;-80
2023/09/01 11:18:17;;;;;;;15.70;3.67;;;;;;;;;;4979216;28;20470;-80
2023/09/01 11:20:46;;;;;;;14.93;3.40;;;;;;;;;;4984551;28;20935;-81
2023/09/01 11:23:17;;;;;;;16.03;3.60;;;;;;;;;;4982884;28;20521;-81
2023/09/01 11:25:44;;;;;;;15.10;3.73;;;;;;;;;;4984164;28;20432;-79
2023/09/01 11:28:14;;;;;;;15.37;3.77;;;;;;;;;;4983716;28;20436;-79
2023/09/01 11:30:52;;;;;;;16.20;3.60;;;;;;;;;;4988574;28;20438;-80
2023/09/01 11:33:19;;;;;;;16.80;2.93;;;;;;;;;;4984708;28;20575;-79
2023/09/01 11:35:46;;;;;;;14.13;3.10;;;;;;;;;;4981412;28;20451;-79
2023/09/01 11:38:18;;;;;;;16.40;3.70;;;;;;;;;;4986500;28;20483;-79
2023/09/01 11:40:46;;;;;;;15.37;3.50;;;;;;;;;;4988593;28;21131;-80
2023/09/01 11:43:13;;;;;;;16.00;3.80;;;;;;;;;;4988519;28;20487;-78
2023/09/01 11:45:46;;;;;;;15.97;4.07;;;;;;;;;;4988655;28;20836;-79
2023/09/01 11:48:14;;;;;;;;;;;;;;;;;;4978532;28;20290;-78
2023/09/01 11:50:40;;;;;;;;;;;;;;;;;;5014343;28;20414;-78
2023/09/01 11:53:07;;;;;;;16.80;3.17;;;;;;;;;;5016473;28;20708;-79
2023/09/01 11:55:43;;;;;;;16.00;3.40;;;;;;;;;;4988361;28;20426;-78
2023/09/01 11:58:09;;;;;;;17.10;4.13;;;;;;;;;;5002765;28;20433;-80
2023/09/01 12:00:38;;;;;;;16.85;3.67;;;;;;;;;;4981683;28;20423;-80
2023/09/01 12:03:06;;;;;;;16.30;3.60;;;;;;;;;;4988671;28;20506;-79
2023/09/01 12:05:33;;;;;;;;;;;;;;;;;;4986291;28;20057;-78
2023/09/01 12:08:00;;;;;;;;;;;;;;;;;;4987173;28;19972;-79
2023/09/01 12:10:26;;;;;;;;;;;;;;;;;;5016195;28;19969;-79
2023/09/01 12:12:53;;;;;;;;;;;;;;;;;;5012838;28;19933;-79
2023/09/01 12:15:19;;;;;;;;;;;;;;;;;;4986295;28;19926;-79
2023/09/01 12:17:46;;;;;;;;;;;;;;;;;;4982896;28;19930;-80
2023/09/01 12:20:12;;;;;;;;;;;;;;;;;;5011791;28;20372;-79
2023/09/01 12:22:39;;;;;;;;;;;;;;;;;;5013965;28;19925;-78
2023/09/01 12:25:05;;;;;;;;;;;;;;;;;;5016837;28;20342;-79
2023/09/01 12:27:31;;;;;;;;;;;;;;;;;;5016416;28;19925;-79
2023/09/01 12:29:58;;;;;;;;;;;;;;;;;;5019840;28;19961;-79
2023/09/01 12:32:24;;;;;;;;;;;;;;;;;;4984282;28;20336;-79
2023/09/01 12:34:51;;;;;;;;;;;;;;;;;;4986725;28;20383;-81
2023/09/01 12:37:20;;;;;;;;;;;;;;;;;;5009483;28;19922;-80
2023/09/01 12:39:46;;;;;;;;;;;;;;;;;;4998533;28;19936;-81
2023/09/01 12:42:12;;;;;;;;;;;;;;;;;;4990283;28;20391;-80
2023/09/01 12:44:39;;;;;;;;;;;;;;;;;;5018424;28;19922;-81
2023/09/01 12:47:05;;;;;;;;;;;;;;;;;;5017685;28;19926;-81
2023/09/01 12:49:36;;;;;;;;;;;;;;;;;;5017875;28;19929;-80
2023/09/01 12:52:03;;;;;;;;;;;;;;;;;;5007163;28;19985;-80
2023/09/01 12:54:30;;;;;;;;;;;;;;;;;;5015937;28;19996;-82
2023/09/01 12:56:56;;;;;;;;;;;;;;;;;;4991087;28;20338;-82
2023/09/01 12:59:23;;;;;;;;;;;;;;;;;;5007418;28;19922;-81
2023/09/01 13:01:49;;;;;;;;;;;;;;;;;;5013906;28;19951;-80
2023/09/01 13:04:15;;;;;;;;;;;;;;;;;;4985253;28;19965;-81
2023/09/01 13:06:42;;;;;;;;;;;;;;;;;;5016102;28;19926;-81
2023/09/01 13:09:08;;;;;;;;;;;;;;;;;;5008137;28;19957;-82
2023/09/01 13:11:35;;;;;;;;;;;;;;;;;;5000577;28;20020;-80
2023/09/01 13:14:01;;;;;;;;;;;;;;;;;;5015831;28;19934;-81
2023/09/01 13:16:28;;;;;;;;;;;;;;;;;;5003354;28;20375;-80
2023/09/01 13:18:55;;;;;;;;;;;;;;;;;;5014037;28;20314;-81
2023/09/01 13:21:21;;;;;;;;;;;;;;;;;;4982215;28;19953;-81
2023/09/01 13:23:49;;;;;;;;;;;;;;;;;;5002568;28;19940;-81
2023/09/01 13:26:16;;;;;;;;;;;;;;;;;;4979700;28;19941;-81
2023/09/01 13:28:43;;;;;;;;;;;;;;;;;;4983449;28;19922;-80
2023/09/01 13:31:09;;;;;;;;;;;;;;;;;;4979916;28;19922;-80
2023/09/01 13:33:40;;;;;;;;;;;;;;;;;;5013627;28;20017;-83
2023/09/01 13:36:07;;;;;;;;;;;;;;;;;;5015033;28;20009;-79
2023/09/01 13:38:33;;;;;;;;;;;;;;;;;;5010259;28;19922;-79
2023/09/01 13:41:00;;;;;;;;;;;;;;;;;;5006839;28;19976;-80
2023/09/01 13:43:27;;;;;;;;;;;;;;;;;;5021607;28;20379;-79
2023/09/01 13:45:54;;;;;;;;;;;;;;;;;;4984527;28;20004;-79
2023/09/01 13:48:21;;;;;;;;;;;;;;;;;;4985845;28;20306;-79
2023/09/01 13:50:48;;;;;;;;;;;;;;;;;;4984663;28;19980;-79
2023/09/01 13:53:16;;;;;;;15.63;2.77;;;;;;;;;;5015784;28;20210;-79
2023/09/01 13:55:43;;;;;;;19.00;4.30;;;;;;;;;;4981995;28;20420;-81
2023/09/01 13:58:10;;;;;;;16.63;3.42;;;;;;;;;;4997388;28;20519;-81
2023/09/01 14:00:36;;;;;;;17.58;3.70;;;;;;;;;;4989325;28;20514;-79
2023/09/01 14:03:04;;;;;;;15.50;2.90;;;;;;;;;;4983050;28;20418;-79
2023/09/01 14:05:31;;;;;;;17.83;3.80;;;;;;;;;;4982254;28;20408;-80
2023/09/01 14:07:58;;;;;;;16.50;3.40;;;;;;;;;;4986317;28;20257;-80
2023/09/01 14:10:24;;;;;;;;;;;;;;;;;;4985299;28;20336;-81
2023/09/01 14:12:51;;;;;;;;;;;;;;;;;;5008584;28;19922;-82
2023/09/01 14:15:17;;;;;;;;;;;;;;;;;;4979071;28;20031;-81
2023/09/01 14:17:45;;;;;;;;;;;;;;;;;;4990214;28;19925;-80
2023/09/01 14:20:11;;;;;;;;;;;;;;;;;;5013727;28;19929;-80
2023/09/01 14:22:38;;;;;;;;;;;;;;;;;;4981435;28;20386;-79
2023/09/01 14:25:04;;;;;;;;;;;;;;;;;;5033555;28;19922;-80
2023/09/01 14:27:32;;;;;;;14.27;2.40;;;;;;;;;;4986438;28;20210;-79
2023/09/01 14:29:59;;;;;;;14.73;1.83;;;;;;;;;;4982757;28;20598;-80
2023/09/01 14:32:26;;;;;;;14.82;1.70;;;;;;;;;;5015172;28;20425;-80
2023/09/01 14:34:52;;;;;;;14.50;1.50;;;;;;;;;;4984425;28;20414;-81
2023/09/01 14:37:21;;;;;;;16.00;1.60;;;;;;;;;;4987370;28;20420;-80
2023/09/01 14:39:48;;;;;;;16.50;1.90;;;;;;;;;;4981191;28;20459;-81
2023/09/01 14:42:15;;;;;;;14.60;1.67;;;;;;;;;;5004285;28;20418;-82
2023/09/01 14:44:43;;;;;;;14.40;1.60;;;;;;;;;;4983603;28;20521;-82
2023/09/01 14:47:09;;;;;;;14.40;1.70;;;;;;;;;;4981619;28;20960;-79
2023/09/01 14:49:36;;;;;;;14.10;1.30;;;;;;;;;;4978479;28;20428;-79
2023/09/01 14:52:03;;;;;;;13.50;1.00;;;;;;;;;;4997453;28;20446;-79
2023/09/01 14:54:30;;;;;;;13.90;1.20;;;;;;;;;;4979350;28;20420;-79
2023/09/01 14:56:56;;;;;;;15.13;1.40;;;;;;;;;;4988639;28;20447;-79